createdAt,value
2023-02-15T00:01:21.212Z,101890.50
2023-02-15T00:04:25.488Z,101888.78
2023-02-15T00:07:26.946Z,101882.59
2023-02-15T00:10:28.443Z,101872.97
2023-02-15T00:13:29.932Z,101881.97
2023-02-15T00:16:31.551Z,101866.81
2023-02-15T00:19:33.065Z,101851.63
2023-02-15T00:22:34.600Z,101859.06
2023-02-15T00:25:36.126Z,101864.59
2023-02-15T00:28:37.749Z,101867.41
2023-02-15T00:31:39.406Z,101864.84
2023-02-15T00:34:40.939Z,101854.09
2023-02-15T00:37:42.420Z,101857.81
2023-02-15T00:40:43.909Z,101857.06
2023-02-15T00:43:45.408Z,101858.06
2023-02-15T00:46:46.890Z,101855.47
2023-02-15T00:49:48.418Z,101852.75
2023-02-15T00:52:49.938Z,101847.31
2023-02-15T00:55:51.503Z,101849.03
2023-02-15T00:58:53.047Z,101842.75
2023-02-15T01:01:54.574Z,101842.75
2023-02-15T01:04:56.125Z,101836.38
2023-02-15T01:07:58.222Z,101838.19
2023-02-15T01:11:07.694Z,101847.06
2023-02-15T01:14:09.235Z,101848.06
2023-02-15T01:17:14.313Z,101841.78
2023-02-15T01:20:16.157Z,101853.59
2023-02-15T01:23:17.724Z,101834.63
2023-02-15T01:26:21.992Z,101836.59
2023-02-15T01:29:23.558Z,101832.06
2023-02-15T01:32:25.094Z,101822.19
2023-02-15T01:35:28.468Z,101821.22
2023-02-15T01:38:29.931Z,101822.31
2023-02-15T01:41:31.839Z,101816.00
2023-02-15T01:44:49.566Z,101816.91
2023-02-15T01:48:02.814Z,101824.13
2023-02-15T01:51:04.706Z,101828.84
2023-02-15T01:54:32.362Z,101822.53
2023-02-15T01:57:34.316Z,101815.41
2023-02-15T02:00:36.268Z,101808.25
2023-02-15T02:03:56.686Z,101807.38
2023-02-15T02:07:00.413Z,101803.94
2023-02-15T02:10:03.436Z,101794.94
2023-02-15T02:13:08.402Z,101801.34
2023-02-15T02:16:27.559Z,101787.06
2023-02-15T02:19:41.373Z,101787.06
2023-02-15T02:22:57.969Z,101788.91
2023-02-15T02:26:18.254Z,101790.88
2023-02-15T02:29:58.769Z,101780.03
2023-02-15T02:33:09.946Z,101776.34
2023-02-15T02:36:12.298Z,101773.75
2023-02-15T02:39:31.425Z,101768.94
2023-02-15T02:42:48.654Z,101764.41
2023-02-15T02:46:21.377Z,101762.56
2023-02-15T02:49:35.252Z,101758.84
2023-02-15T02:52:43.972Z,101761.44
2023-02-15T02:56:06.968Z,101761.44
2023-02-15T02:59:20.856Z,101749.75
2023-02-15T03:02:27.445Z,101749.75
2023-02-15T03:05:31.433Z,101754.28
2023-02-15T03:08:38.961Z,101751.56
2023-02-15T03:11:41.762Z,101752.56
2023-02-15T03:14:46.637Z,101750.72
2023-02-15T03:17:56.496Z,101758.84
2023-02-15T03:21:02.406Z,101743.59
2023-02-15T03:24:21.906Z,101749.97
2023-02-15T03:27:27.619Z,101743.84
2023-02-15T03:30:32.130Z,101749.25
2023-02-15T03:33:41.357Z,101739.38
2023-02-15T03:36:48.290Z,101743.94
2023-02-15T03:40:28.589Z,101743.94
2023-02-15T03:43:45.791Z,101734.22
2023-02-15T03:46:57.217Z,101727.09
2023-02-15T03:49:58.682Z,101733.47
2023-02-15T03:53:03.145Z,101736.16
2023-02-15T03:56:04.762Z,101738.13
2023-02-15T03:59:24.977Z,101739.13
2023-02-15T04:02:32.430Z,101731.88
2023-02-15T04:05:33.968Z,101732.84
2023-02-15T04:08:54.064Z,101739.13
2023-02-15T04:11:58.358Z,101729.91
2023-02-15T04:15:18.416Z,101725.22
2023-02-15T04:18:19.907Z,101719.56
2023-02-15T04:21:41.806Z,101717.59
2023-02-15T04:25:01.903Z,101704.63
2023-02-15T04:28:03.657Z,101712.53
2023-02-15T04:31:05.117Z,101715.00
2023-02-15T04:34:06.614Z,101705.63
2023-02-15T04:37:08.118Z,101698.22
2023-02-15T04:40:13.039Z,101699.72
2023-02-15T04:43:14.515Z,101693.28
2023-02-15T04:46:16.040Z,101692.19
2023-02-15T04:49:17.551Z,101687.50
2023-02-15T04:52:19.172Z,101682.81
2023-02-15T04:55:20.851Z,101689.09
2023-02-15T04:58:22.330Z,101681.94
2023-02-15T05:01:23.830Z,101682.81
2023-02-15T05:04:25.340Z,101680.97
2023-02-15T05:07:26.814Z,101678.25
2023-02-15T05:10:28.295Z,101683.69
2023-02-15T05:13:29.850Z,101679.38
2023-02-15T05:16:34.461Z,101686.50
2023-02-15T05:19:35.972Z,101683.06
2023-02-15T05:22:37.446Z,101680.47
2023-02-15T05:25:57.425Z,101676.03
2023-02-15T05:28:58.941Z,101679.75
2023-02-15T05:32:00.575Z,101675.44
2023-02-15T05:35:02.153Z,101685.41
2023-02-15T05:38:03.641Z,101679.25
2023-02-15T05:41:09.913Z,101684.69
2023-02-15T05:44:11.427Z,101675.94
2023-02-15T05:47:12.875Z,101666.06
2023-02-15T05:50:14.344Z,101663.50
2023-02-15T05:53:15.835Z,101661.75
2023-02-15T05:56:17.354Z,101663.63
2023-02-15T05:59:18.822Z,101668.19
2023-02-15T06:02:20.310Z,101667.31
2023-02-15T06:05:21.895Z,101663.50
2023-02-15T06:08:23.440Z,101660.81
2023-02-15T06:11:25.000Z,101660.53
2023-02-15T06:14:26.600Z,101664.00
2023-02-15T06:17:28.069Z,101663.84
2023-02-15T06:20:29.597Z,101656.47
2023-02-15T06:23:31.110Z,101658.91
2023-02-15T06:26:32.638Z,101662.47
2023-02-15T06:29:34.103Z,101656.09
2023-02-15T06:32:35.666Z,101654.13
2023-02-15T06:35:37.194Z,101652.25
2023-02-15T06:38:38.835Z,101655.81
2023-02-15T06:41:40.386Z,101660.25
2023-02-15T06:44:41.910Z,101652.13
2023-02-15T06:47:43.635Z,101654.81
2023-02-15T06:50:45.116Z,101647.69
2023-02-15T06:53:46.654Z,101650.41
2023-02-15T06:56:48.162Z,101650.53
2023-02-15T06:59:49.711Z,101653.38
2023-02-15T07:02:58.817Z,101656.94
2023-02-15T07:06:02.077Z,101657.06
2023-02-15T07:09:03.874Z,101659.06
2023-02-15T07:12:24.537Z,101650.94
2023-02-15T07:15:26.064Z,101640.31
2023-02-15T07:18:27.512Z,101652.16
2023-02-15T07:21:29.052Z,101652.25
2023-02-15T07:24:30.540Z,101647.84
2023-02-15T07:27:32.891Z,101653.25
2023-02-15T07:30:34.507Z,101653.53
2023-02-15T07:33:36.266Z,101662.50
2023-02-15T07:36:37.987Z,101660.06
2023-02-15T07:39:39.460Z,101678.28
2023-02-15T07:42:40.927Z,101665.84
2023-02-15T07:45:42.491Z,101668.56
2023-02-15T07:48:45.104Z,101662.53
2023-02-15T07:51:47.076Z,101656.38
2023-02-15T07:54:48.609Z,101654.63
2023-02-15T07:57:51.487Z,101652.06
2023-02-15T08:00:59.164Z,101647.59
2023-02-15T08:04:00.791Z,101640.47
2023-02-15T08:07:02.324Z,101631.59
2023-02-15T08:10:03.949Z,101631.75
2023-02-15T08:13:05.445Z,101634.31
2023-02-15T08:16:07.087Z,101629.91
2023-02-15T08:19:23.510Z,101621.75
2023-02-15T08:22:25.490Z,101622.72
2023-02-15T08:25:26.995Z,101617.47
2023-02-15T08:28:28.463Z,101620.03
2023-02-15T08:31:30.488Z,101614.59
2023-02-15T08:34:35.212Z,101607.22
2023-02-15T08:37:36.758Z,101601.81
2023-02-15T08:40:38.987Z,101603.66
2023-02-15T08:43:41.129Z,101605.25
2023-02-15T08:46:44.929Z,101595.28
2023-02-15T08:49:46.371Z,101593.56
2023-02-15T08:52:47.889Z,101593.66
2023-02-15T08:55:59.565Z,101593.41
2023-02-15T08:59:03.651Z,101604.41
2023-02-15T09:02:05.137Z,101604.50
2023-02-15T09:05:07.137Z,101602.53
2023-02-15T09:08:08.624Z,101595.28
2023-02-15T09:11:13.084Z,101589.09
2023-02-15T09:14:17.984Z,101586.41
2023-02-15T09:17:19.465Z,101581.97
2023-02-15T09:20:21.012Z,101585.69
2023-02-15T09:23:27.298Z,101587.50
2023-02-15T09:26:30.335Z,101588.41
2023-02-15T09:29:31.807Z,101586.81
2023-02-15T09:32:33.274Z,101584.09
2023-02-15T09:35:34.789Z,101587.78
2023-02-15T09:38:36.277Z,101589.50
2023-02-15T09:41:52.787Z,101596.75
2023-02-15T09:45:04.797Z,101592.22
2023-02-15T09:48:23.494Z,101605.63
2023-02-15T09:51:52.097Z,101599.47
2023-02-15T09:54:59.563Z,101593.34
2023-02-15T09:58:03.956Z,101595.78
2023-02-15T10:01:22.857Z,101595.16
2023-02-15T10:04:45.396Z,101604.88
2023-02-15T10:07:52.842Z,101603.91
2023-02-15T10:11:36.023Z,101601.06
2023-02-15T10:14:59.132Z,101599.09
2023-02-15T10:18:24.852Z,101600.69
2023-02-15T10:21:47.624Z,101596.88
2023-02-15T10:25:05.715Z,101582.47
2023-02-15T10:28:19.281Z,101586.66
2023-02-15T10:31:39.736Z,101586.66
2023-02-15T10:34:51.215Z,101585.66
2023-02-15T10:38:04.935Z,101588.38
2023-02-15T10:41:15.372Z,101589.22
2023-02-15T10:44:35.742Z,101584.66
2023-02-15T10:48:08.278Z,101577.41
2023-02-15T10:51:36.971Z,101581.94
2023-02-15T10:55:04.669Z,101583.78
2023-02-15T10:58:26.531Z,101581.94
2023-02-15T11:01:36.875Z,101575.66
2023-02-15T11:04:47.044Z,101582.09
2023-02-15T11:07:52.353Z,101577.53
2023-02-15T11:11:06.200Z,101570.41
2023-02-15T11:14:37.415Z,101573.09
2023-02-15T11:17:45.018Z,101571.38
2023-02-15T11:20:52.755Z,101568.66
2023-02-15T11:23:54.883Z,101559.78
2023-02-15T11:26:59.314Z,101565.34
2023-02-15T11:30:11.559Z,101564.34
2023-02-15T11:33:23.371Z,101557.22
2023-02-15T11:36:34.308Z,101561.78
2023-02-15T11:39:38.220Z,101551.91
2023-02-15T11:42:41.564Z,101551.06
2023-02-15T11:45:45.758Z,101534.91
2023-02-15T11:48:47.413Z,101530.50
2023-02-15T11:51:51.510Z,101539.47
2023-02-15T11:54:54.167Z,101543.03
2023-02-15T11:58:01.772Z,101539.22
2023-02-15T12:01:15.281Z,101533.69
2023-02-15T12:04:40.430Z,101535.41
2023-02-15T12:07:47.760Z,101530.88
2023-02-15T12:11:04.455Z,101529.88
2023-02-15T12:14:09.176Z,101528.84
2023-02-15T12:17:14.242Z,101521.72
2023-02-15T12:20:15.667Z,101524.56
2023-02-15T12:23:18.864Z,101526.28
2023-02-15T12:26:27.878Z,101526.28
2023-02-15T12:29:35.445Z,101521.00
2023-02-15T12:32:49.847Z,101528.16
2023-02-15T12:36:00.497Z,101523.59
2023-02-15T12:39:18.591Z,101512.75
2023-02-15T12:42:20.593Z,101510.03
2023-02-15T12:45:26.945Z,101507.31
2023-02-15T12:48:28.474Z,101502.88
2023-02-15T12:51:29.994Z,101511.00
2023-02-15T12:54:33.578Z,101507.44
2023-02-15T12:57:35.076Z,101506.59
2023-02-15T13:00:36.845Z,101498.47
2023-02-15T13:03:52.157Z,101494.75
2023-02-15T13:06:58.768Z,101482.09
2023-02-15T13:10:00.289Z,101477.63
2023-02-15T13:13:03.874Z,101485.03
2023-02-15T13:16:12.125Z,101484.91
2023-02-15T13:19:40.878Z,101476.66
2023-02-15T13:22:47.509Z,101476.78
2023-02-15T13:25:51.254Z,101464.09
2023-02-15T13:28:57.177Z,101456.97
2023-02-15T13:32:16.260Z,101454.25
2023-02-15T13:35:19.690Z,101453.41
2023-02-15T13:38:39.737Z,101450.69
2023-02-15T13:42:06.811Z,101447.84
2023-02-15T13:45:39.536Z,101432.31
2023-02-15T13:49:25.581Z,101433.91
2023-02-15T13:52:29.428Z,101435.50
2023-02-15T13:55:36.881Z,101432.66
2023-02-15T13:58:50.618Z,101439.66
2023-02-15T14:01:57.794Z,101430.41
2023-02-15T14:05:18.001Z,101435.69
2023-02-15T14:08:38.279Z,101429.88
2023-02-15T14:12:24.523Z,101438.75
2023-02-15T14:15:41.875Z,101434.06
2023-02-15T14:18:49.631Z,101437.47
2023-02-15T14:21:51.133Z,101426.63
2023-02-15T14:24:59.282Z,101434.38
2023-02-15T14:28:23.370Z,101426.25
2023-02-15T14:31:38.459Z,101419.69
2023-02-15T14:34:52.280Z,101420.56
2023-02-15T14:38:05.293Z,101426.84
2023-02-15T14:41:42.980Z,101421.44
2023-02-15T14:44:54.600Z,101420.56
2023-02-15T14:48:18.931Z,101426.84
2023-02-15T14:51:46.508Z,101419.56
2023-02-15T14:54:48.007Z,101422.41
2023-02-15T14:57:59.758Z,101416.72
2023-02-15T15:01:11.290Z,101414.00
2023-02-15T15:04:23.423Z,101414.72
2023-02-15T15:07:38.359Z,101410.31
2023-02-15T15:10:45.570Z,101404.75
2023-02-15T15:14:01.048Z,101409.31
2023-02-15T15:17:04.841Z,101408.47
2023-02-15T15:20:35.287Z,101419.19
2023-02-15T15:23:43.533Z,101420.88
2023-02-15T15:26:49.963Z,101412.88
2023-02-15T15:29:52.180Z,101412.88
2023-02-15T15:32:56.838Z,101403.78
2023-02-15T15:36:26.468Z,101402.03
2023-02-15T15:39:52.594Z,101394.78
2023-02-15T15:43:03.254Z,101403.88
2023-02-15T15:46:22.350Z,101388.47
2023-02-15T15:49:29.019Z,101404.50
2023-02-15T15:52:32.588Z,101392.38
2023-02-15T15:55:35.310Z,101386.56
2023-02-15T15:58:42.732Z,101391.59
2023-02-15T16:01:47.969Z,101387.59
2023-02-15T16:04:49.440Z,101383.75
2023-02-15T16:07:51.007Z,101384.47
2023-02-15T16:10:52.452Z,101389.78
2023-02-15T16:13:54.526Z,101384.22
2023-02-15T16:17:02.531Z,101374.09
2023-02-15T16:20:12.308Z,101369.38
2023-02-15T16:23:32.404Z,101378.25
2023-02-15T16:26:52.261Z,101377.97
2023-02-15T16:29:53.728Z,101380.41
2023-02-15T16:33:05.106Z,101373.88
2023-02-15T16:36:10.763Z,101374.75
2023-02-15T16:39:20.400Z,101367.69
2023-02-15T16:42:23.002Z,101382.72
2023-02-15T16:45:27.154Z,101379.22
2023-02-15T16:48:28.682Z,101363.09
2023-02-15T16:51:33.592Z,101368.81
2023-02-15T16:54:36.359Z,101379.16
2023-02-15T16:57:39.376Z,101378.88
2023-02-15T17:00:44.080Z,101380.47
2023-02-15T17:03:49.826Z,101379.22
2023-02-15T17:07:06.695Z,101371.94
2023-02-15T17:10:29.862Z,101368.38
2023-02-15T17:13:31.591Z,101365.66
2023-02-15T17:16:42.572Z,101368.38
2023-02-15T17:19:50.103Z,101367.47
2023-02-15T17:22:53.082Z,101363.19
2023-02-15T17:25:55.178Z,101373.19
2023-02-15T17:29:03.583Z,101367.41
2023-02-15T17:32:13.583Z,101360.13
2023-02-15T17:35:25.659Z,101370.72
2023-02-15T17:38:27.192Z,101369.59
2023-02-15T17:41:31.551Z,101360.63
2023-02-15T17:44:33.005Z,101358.16
2023-02-15T17:47:34.593Z,101353.00
2023-02-15T17:50:36.274Z,101358.88
2023-02-15T17:53:38.420Z,101364.63
2023-02-15T17:56:39.914Z,101361.44
2023-02-15T18:00:00.514Z,101350.81
2023-02-15T18:03:20.860Z,101351.00
2023-02-15T18:06:41.357Z,101358.53
2023-02-15T18:10:01.620Z,101354.31
2023-02-15T18:13:03.376Z,101353.81
2023-02-15T18:16:04.985Z,101358.81
2023-02-15T18:19:14.018Z,101352.03
2023-02-15T18:22:17.683Z,101357.91
2023-02-15T18:25:21.496Z,101354.06
2023-02-15T18:28:22.930Z,101341.22
2023-02-15T18:31:24.797Z,101332.84
2023-02-15T18:34:39.878Z,101343.25
2023-02-15T18:37:41.356Z,101334.16
2023-02-15T18:40:42.807Z,101332.03
2023-02-15T18:43:44.644Z,101338.19
2023-02-15T18:46:46.136Z,101341.63
2023-02-15T18:49:47.812Z,101342.09
2023-02-15T18:52:51.400Z,101341.06
2023-02-15T18:55:53.322Z,101342.66
2023-02-15T18:58:54.748Z,101338.09
2023-02-15T19:01:57.779Z,101336.00
2023-02-15T19:04:59.202Z,101326.13
2023-02-15T19:08:02.125Z,101333.13
2023-02-15T19:11:04.035Z,101333.00
2023-02-15T19:14:06.151Z,101326.56
2023-02-15T19:17:15.881Z,101326.44
2023-02-15T19:20:19.925Z,101328.16
2023-02-15T19:23:23.642Z,101319.03
2023-02-15T19:26:36.290Z,101316.19
2023-02-15T19:29:44.853Z,101303.34
2023-02-15T19:32:46.518Z,101300.50
2023-02-15T19:35:53.983Z,101302.09
2023-02-15T19:38:55.879Z,101299.22
2023-02-15T19:41:57.367Z,101298.97
2023-02-15T19:44:58.808Z,101301.41
2023-02-15T19:48:03.039Z,101299.41
2023-02-15T19:51:04.707Z,101298.41
2023-02-15T19:54:31.001Z,101317.13
2023-02-15T19:57:32.506Z,101306.28
2023-02-15T20:00:34.449Z,101307.00
2023-02-15T20:03:36.262Z,101314.00
2023-02-15T20:06:37.738Z,101306.72
2023-02-15T20:09:40.818Z,101320.16
2023-02-15T20:12:42.701Z,101309.16
2023-02-15T20:15:49.883Z,101297.31
2023-02-15T20:18:51.384Z,101303.59
2023-02-15T20:21:54.803Z,101294.44
2023-02-15T20:24:56.898Z,101298.03
2023-02-15T20:27:59.449Z,101302.50
2023-02-15T20:31:01.249Z,101313.34
2023-02-15T20:34:02.788Z,101306.91
2023-02-15T20:37:05.118Z,101300.50
2023-02-15T20:40:18.586Z,101318.50
2023-02-15T20:43:20.027Z,101317.63
2023-02-15T20:46:21.465Z,101306.78
2023-02-15T20:49:24.984Z,101307.63
2023-02-15T20:52:26.606Z,101303.22
2023-02-15T20:55:31.935Z,101303.94
2023-02-15T20:58:34.378Z,101308.47
2023-02-15T21:01:35.870Z,101312.09
2023-02-15T21:04:37.459Z,101312.09
2023-02-15T21:07:38.908Z,101325.66
2023-02-15T21:10:45.127Z,101331.94
2023-02-15T21:13:47.673Z,101330.91
2023-02-15T21:16:50.322Z,101322.94
2023-02-15T21:19:51.796Z,101331.94
2023-02-15T21:22:54.317Z,101328.22
2023-02-15T21:25:56.512Z,101328.09
2023-02-15T21:28:57.999Z,101329.94
2023-02-15T21:32:00.347Z,101320.91
2023-02-15T21:35:01.937Z,101319.09
2023-02-15T21:38:04.211Z,101318.09
2023-02-15T21:41:25.689Z,101317.97
2023-02-15T21:44:45.638Z,101327.78
2023-02-15T21:47:52.829Z,101325.09
2023-02-15T21:51:13.474Z,101322.38
2023-02-15T21:54:17.055Z,101319.66
2023-02-15T21:57:21.049Z,101323.22
2023-02-15T22:00:25.010Z,101327.66
2023-02-15T22:03:31.894Z,101330.50
2023-02-15T22:06:33.352Z,101341.38
2023-02-15T22:09:34.901Z,101344.06
2023-02-15T22:12:37.453Z,101342.22
2023-02-15T22:15:39.130Z,101346.78
2023-02-15T22:18:40.666Z,101342.38
2023-02-15T22:21:42.311Z,101341.50
2023-02-15T22:24:44.787Z,101345.94
2023-02-15T22:27:47.954Z,101340.50
2023-02-15T22:30:49.441Z,101333.22
2023-02-15T22:33:51.207Z,101346.78
2023-02-15T22:36:53.594Z,101342.38
2023-02-15T22:39:55.047Z,101347.81
2023-02-15T22:42:59.714Z,101343.34
2023-02-15T22:46:05.061Z,101343.34
2023-02-15T22:49:06.547Z,101338.09
2023-02-15T22:52:13.555Z,101337.19
2023-02-15T22:55:20.686Z,101340.91
2023-02-15T22:58:26.585Z,101340.19
2023-02-15T23:01:33.727Z,101336.75
2023-02-15T23:04:35.188Z,101335.13
2023-02-15T23:07:37.163Z,101340.84
2023-02-15T23:10:40.725Z,101345.41
2023-02-15T23:13:42.544Z,101357.41
2023-02-15T23:16:44.070Z,101347.69
2023-02-15T23:19:45.691Z,101340.56
2023-02-15T23:22:47.183Z,101331.69
2023-02-15T23:25:48.630Z,101336.38
2023-02-15T23:28:51.681Z,101346.38
2023-02-15T23:31:53.985Z,101339.22
2023-02-15T23:34:55.538Z,101334.94
2023-02-15T23:37:56.984Z,101337.78
2023-02-15T23:41:35.253Z,101343.34
2023-02-15T23:44:37.441Z,101347.06
2023-02-15T23:47:57.523Z,101336.34
2023-02-15T23:50:59.718Z,101333.91
2023-02-15T23:54:01.258Z,101329.50
2023-02-15T23:57:03.268Z,101332.31
